createdAt,value
2023-04-23T00:00:49.872Z,11.04
2023-04-23T00:05:47.847Z,10.93
2023-04-23T00:10:44.371Z,10.83
2023-04-23T00:15:40.910Z,10.83
2023-04-23T00:20:37.322Z,10.75
2023-04-23T00:25:33.663Z,10.69
2023-04-23T00:30:30.113Z,10.64
2023-04-23T00:35:26.564Z,10.59
2023-04-23T00:40:23.745Z,10.56
2023-04-23T00:45:20.602Z,10.50
2023-04-23T00:50:16.981Z,10.48
2023-04-23T00:55:13.353Z,10.46
2023-04-23T01:00:11.555Z,10.43
2023-04-23T01:05:09.548Z,10.35
2023-04-23T01:10:06.737Z,10.31
2023-04-23T01:15:03.845Z,10.31
2023-04-23T01:20:00.536Z,10.33
2023-04-23T01:24:57.363Z,10.29
2023-04-23T01:29:54.335Z,10.25
2023-04-23T01:34:51.920Z,10.18
2023-04-23T01:39:48.790Z,10.19
2023-04-23T01:44:45.153Z,10.16
2023-04-23T01:49:41.613Z,10.12
2023-04-23T01:54:38.016Z,10.05
2023-04-23T01:59:34.501Z,9.95
2023-04-23T02:04:31.633Z,9.90
2023-04-23T02:09:28.112Z,9.83
2023-04-23T02:14:24.464Z,9.80
2023-04-23T02:19:20.806Z,9.76
2023-04-23T02:24:17.109Z,9.68
2023-04-23T02:29:13.456Z,9.53
2023-04-23T02:34:09.812Z,9.41
2023-04-23T02:39:06.402Z,9.32
2023-04-23T02:44:02.749Z,9.25
2023-04-23T02:48:59.143Z,9.25
2023-04-23T02:53:55.661Z,9.14
2023-04-23T02:58:52.000Z,9.10
2023-04-23T03:03:48.939Z,9.05
2023-04-23T03:08:45.980Z,9.02
2023-04-23T03:13:42.489Z,9.00
2023-04-23T03:18:39.270Z,8.95
2023-04-23T03:23:36.202Z,8.94
2023-04-23T03:28:32.848Z,8.89
2023-04-23T03:33:29.168Z,8.90
2023-04-23T03:38:25.961Z,8.85
2023-04-23T03:43:22.431Z,8.83
2023-04-23T03:48:18.807Z,8.81
2023-04-23T03:53:15.190Z,8.88
2023-04-23T03:58:11.795Z,8.90
2023-04-23T04:03:09.127Z,8.98
2023-04-23T04:08:05.626Z,8.97
2023-04-23T04:13:01.971Z,8.97
2023-04-23T04:17:58.703Z,8.99
2023-04-23T04:22:55.565Z,8.91
2023-04-23T04:27:51.904Z,9.00
2023-04-23T04:32:50.776Z,9.09
2023-04-23T04:37:47.326Z,9.07
2023-04-23T04:42:43.682Z,8.97
2023-04-23T04:47:40.112Z,8.94
2023-04-23T04:52:37.040Z,8.88
2023-04-23T04:57:33.388Z,9.00
2023-04-23T05:02:29.828Z,8.96
2023-04-23T05:07:26.324Z,8.83
2023-04-23T05:12:22.640Z,8.78
2023-04-23T05:17:18.967Z,8.90
2023-04-23T05:22:15.694Z,8.84
2023-04-23T05:27:11.995Z,8.93
2023-04-23T05:32:08.345Z,8.96
2023-04-23T05:37:04.930Z,9.03
2023-04-23T05:42:02.182Z,9.18
2023-04-23T05:46:58.561Z,9.25
2023-04-23T05:51:55.233Z,9.38
2023-04-23T05:56:52.850Z,9.53
2023-04-23T06:01:51.094Z,9.72
2023-04-23T06:06:47.456Z,9.68
2023-04-23T06:11:43.869Z,9.83
2023-04-23T06:16:40.234Z,10.34
2023-04-23T06:21:36.565Z,10.89
2023-04-23T06:26:33.368Z,11.28
2023-04-23T06:31:30.174Z,11.57
2023-04-23T06:36:26.710Z,11.85
2023-04-23T06:41:23.030Z,12.02
2023-04-23T06:46:19.641Z,12.40
2023-04-23T06:51:16.852Z,12.45
2023-04-23T06:56:13.285Z,12.72
2023-04-23T07:01:10.339Z,12.61
2023-04-23T07:06:06.985Z,12.48
2023-04-23T07:11:03.305Z,12.64
2023-04-23T07:15:59.632Z,13.16
2023-04-23T07:20:56.006Z,13.55
2023-04-23T07:25:52.297Z,13.48
2023-04-23T07:30:49.083Z,13.65
2023-04-23T07:35:45.657Z,13.95
2023-04-23T07:40:42.032Z,14.23
2023-04-23T07:45:38.355Z,14.47
2023-04-23T07:50:34.858Z,14.56
2023-04-23T07:55:31.277Z,14.66
2023-04-23T08:00:27.580Z,14.78
2023-04-23T08:05:24.004Z,14.54
2023-04-23T08:10:20.419Z,14.94
2023-04-23T08:15:16.826Z,15.05
2023-04-23T08:20:13.127Z,15.48
2023-04-23T08:25:10.085Z,15.78
2023-04-23T08:30:08.599Z,16.08
2023-04-23T08:35:05.361Z,16.21
2023-04-23T08:40:01.838Z,16.33
2023-04-23T08:44:58.187Z,16.05
2023-04-23T08:49:55.773Z,15.91
2023-04-23T08:54:59.930Z,15.30
2023-04-23T08:59:57.048Z,16.42
2023-04-23T09:04:56.100Z,16.67
2023-04-23T09:09:52.843Z,17.41
2023-04-23T09:14:51.142Z,17.28
2023-04-23T09:19:47.551Z,15.80
2023-04-23T09:24:43.986Z,15.55
2023-04-23T09:29:44.504Z,15.49
2023-04-23T09:34:41.163Z,15.97
2023-04-23T09:39:39.494Z,16.05
2023-04-23T09:44:36.225Z,16.20
2023-04-23T09:49:32.587Z,16.21
2023-04-23T09:54:30.041Z,16.00
2023-04-23T09:59:45.964Z,15.60
2023-04-23T10:04:44.128Z,15.34
2023-04-23T10:09:41.826Z,15.55
2023-04-23T10:14:39.209Z,15.63
2023-04-23T10:19:41.437Z,17.03
2023-04-23T10:24:41.476Z,18.60
2023-04-23T10:29:38.312Z,18.22
2023-04-23T10:34:34.869Z,17.87
2023-04-23T10:39:33.982Z,16.53
2023-04-23T10:44:57.438Z,17.04
2023-04-23T10:49:55.621Z,17.29
2023-04-23T10:54:59.896Z,17.30
2023-04-23T10:59:58.627Z,17.34
2023-04-23T11:04:58.957Z,16.96
2023-04-23T11:09:59.348Z,17.12
2023-04-23T11:14:56.965Z,17.09
2023-04-23T11:20:20.661Z,16.68
2023-04-23T11:25:22.361Z,16.85
2023-04-23T11:30:23.905Z,17.22
2023-04-23T11:35:29.226Z,17.99
2023-04-23T11:40:25.937Z,18.17
2023-04-23T11:45:28.299Z,17.94
2023-04-23T11:50:30.685Z,18.06
2023-04-23T11:55:28.845Z,18.26
2023-04-23T12:00:26.975Z,18.00
2023-04-23T12:05:29.481Z,17.69
2023-04-23T12:10:25.923Z,17.66
2023-04-23T12:15:22.355Z,17.89
2023-04-23T12:20:21.135Z,17.77
2023-04-23T12:25:23.054Z,18.21
2023-04-23T12:30:19.519Z,18.44
2023-04-23T12:35:15.928Z,18.28
2023-04-23T12:40:12.480Z,17.92
2023-04-23T12:45:09.980Z,18.72
2023-04-23T12:50:06.976Z,19.24
2023-04-23T12:55:05.280Z,19.20
2023-04-23T13:00:02.205Z,19.23
2023-04-23T13:05:01.058Z,18.74
2023-04-23T13:09:59.399Z,18.85
2023-04-23T13:14:56.519Z,18.65
2023-04-23T13:19:55.950Z,18.41
2023-04-23T13:24:52.258Z,18.55
2023-04-23T13:29:48.561Z,18.92
2023-04-23T13:34:45.001Z,19.25
2023-04-23T13:39:41.951Z,19.12
2023-04-23T13:44:38.490Z,19.39
2023-04-23T13:49:34.937Z,19.55
2023-04-23T13:54:31.410Z,19.37
2023-04-23T13:59:27.847Z,19.25
2023-04-23T14:04:24.318Z,19.00
2023-04-23T14:09:22.356Z,18.14
2023-04-23T14:14:18.953Z,17.98
2023-04-23T14:19:15.430Z,16.36
2023-04-23T14:24:50.034Z,14.25
2023-04-23T14:29:51.964Z,13.92
2023-04-23T14:34:48.241Z,12.79
2023-04-23T14:39:44.885Z,13.48
2023-04-23T14:44:41.420Z,14.99
2023-04-23T14:49:37.718Z,15.28
2023-04-23T14:54:36.154Z,15.49
2023-04-23T14:59:32.423Z,15.69
2023-04-23T15:04:28.885Z,16.35
2023-04-23T15:09:25.333Z,16.84
2023-04-23T15:14:30.436Z,16.33
2023-04-23T15:19:26.807Z,16.33
2023-04-23T15:24:23.111Z,17.01
2023-04-23T15:29:19.586Z,16.92
2023-04-23T15:34:15.877Z,16.35
2023-04-23T15:39:12.223Z,16.35
2023-04-23T15:44:10.999Z,16.39
2023-04-23T15:49:07.426Z,16.15
2023-04-23T15:54:07.894Z,15.98
2023-04-23T15:59:04.282Z,16.04
2023-04-23T16:04:10.183Z,16.10
2023-04-23T16:09:08.081Z,15.96
2023-04-23T16:14:06.010Z,16.01
2023-04-23T16:19:02.945Z,16.34
2023-04-23T16:23:59.427Z,16.48
2023-04-23T16:29:16.550Z,16.46
2023-04-23T16:34:12.785Z,16.19
2023-04-23T16:39:09.138Z,16.14
2023-04-23T16:44:05.433Z,16.04
2023-04-23T16:49:02.191Z,16.00
2023-04-23T16:53:58.491Z,15.89
2023-04-23T16:58:54.930Z,15.85
2023-04-23T17:03:51.368Z,15.74
2023-04-23T17:08:47.802Z,15.66
2023-04-23T17:13:44.163Z,15.70
2023-04-23T17:18:40.990Z,15.59
2023-04-23T17:23:37.680Z,15.47
2023-04-23T17:28:34.012Z,15.33
2023-04-23T17:33:30.859Z,14.92
2023-04-23T17:38:28.386Z,14.54
2023-04-23T17:43:24.740Z,14.27
2023-04-23T17:48:23.104Z,14.26
2023-04-23T17:53:19.567Z,14.03
2023-04-23T17:58:16.460Z,13.71
2023-04-23T18:03:16.576Z,13.29
2023-04-23T18:08:16.134Z,13.35
2023-04-23T18:13:13.397Z,13.40
2023-04-23T18:18:09.894Z,13.22
2023-04-23T18:23:06.657Z,13.05
2023-04-23T18:28:03.130Z,12.88
2023-04-23T18:33:07.142Z,12.77
2023-04-23T18:38:11.246Z,12.74
2023-04-23T18:43:07.638Z,12.65
2023-04-23T18:48:37.638Z,12.57
2023-04-23T18:53:37.047Z,12.34
2023-04-23T18:58:33.340Z,12.17
2023-04-23T19:03:30.334Z,11.98
2023-04-23T19:08:29.632Z,11.63
2023-04-23T19:13:26.623Z,11.01
2023-04-23T19:18:23.000Z,10.83
2023-04-23T19:23:19.849Z,10.84
2023-04-23T19:28:16.180Z,10.93
2023-04-23T19:33:12.539Z,10.98
2023-04-23T19:38:09.453Z,10.96
2023-04-23T19:43:06.024Z,10.91
2023-04-23T19:48:04.552Z,10.74
2023-04-23T19:53:01.121Z,10.64
2023-04-23T19:57:58.457Z,10.57
2023-04-23T20:02:55.736Z,10.67
2023-04-23T20:07:52.488Z,10.70
2023-04-23T20:12:49.021Z,10.75
2023-04-23T20:17:45.938Z,10.73
2023-04-23T20:22:42.239Z,10.79
2023-04-23T20:27:38.584Z,10.77
2023-04-23T20:32:34.952Z,10.69
2023-04-23T20:37:31.323Z,10.70
2023-04-23T20:42:29.050Z,10.70
2023-04-23T20:47:25.419Z,10.66
2023-04-23T20:52:21.762Z,10.68
2023-04-23T20:57:18.058Z,10.65
2023-04-23T21:02:15.192Z,10.70
2023-04-23T21:07:11.674Z,10.79
2023-04-23T21:12:07.962Z,10.80
2023-04-23T21:17:04.245Z,10.83
2023-04-23T21:22:00.727Z,10.84
2023-04-23T21:26:57.025Z,10.91
2023-04-23T21:31:53.407Z,10.93
2023-04-23T21:36:49.829Z,10.95
2023-04-23T21:41:47.093Z,10.93
2023-04-23T21:46:44.770Z,10.96
2023-04-23T21:51:41.179Z,10.90
2023-04-23T21:56:38.079Z,10.87
2023-04-23T22:01:36.815Z,10.87
2023-04-23T22:06:34.365Z,10.75
2023-04-23T22:11:31.294Z,10.65
2023-04-23T22:16:29.092Z,10.56
2023-04-23T22:21:25.736Z,10.45
2023-04-23T22:26:22.156Z,10.42
2023-04-23T22:31:18.589Z,10.37
2023-04-23T22:36:15.053Z,10.38
2023-04-23T22:41:11.981Z,10.44
2023-04-23T22:46:08.412Z,10.44
2023-04-23T22:51:05.253Z,10.50
2023-04-23T22:56:01.983Z,10.46
2023-04-23T23:00:58.533Z,10.48
2023-04-23T23:05:55.003Z,10.53
2023-04-23T23:10:51.364Z,10.47
2023-04-23T23:15:47.806Z,10.50
2023-04-23T23:20:45.188Z,10.60
2023-04-23T23:25:41.599Z,10.67
2023-04-23T23:30:38.145Z,10.60
2023-04-23T23:35:34.518Z,10.41
2023-04-23T23:40:31.106Z,10.26
2023-04-23T23:45:27.521Z,10.18
2023-04-23T23:50:24.003Z,10.07
2023-04-23T23:55:20.445Z,10.06
